Menalon — SXCH — position and weather

sailwx.info

Track history (hours):
 
Tides and Currents Weather Stations Pressure Air Temp Water Temp Dewpoint Dewpoint Depression Visibility Wind Speed Wind Dir Waves Ship Positions

Menalon

Last reported at 2016-Feb-12 15:33 UTC. Time now 2016-Feb-12 16:17 UTC.
Position N 38°02' E 023°31'.

; draft 3.5 m.

Type: Ship (hazmat cat C). MMSI: 239741000.

Date/timePositionNaut miles runAvg speedWind from/ knotsBaromVisibWave heightAir tempDewpointWater temp
2016-Feb-12 15:33N 38°02' E 023°31'1 0.6
2016-Feb-12 14:33N 38°02' E 023°32'0 0.0
2016-Feb-12 13:33N 38°02' E 023°32'0 0.0
2016-Feb-12 12:33N 38°02' E 023°32'0 0.0
2016-Feb-12 11:33N 38°02' E 023°32'0 0.0
2016-Feb-12 10:33N 38°02' E 023°32'0 0.0
2016-Feb-12 09:33N 38°02' E 023°32'0 0.0
2016-Feb-12 08:33N 38°02' E 023°32'0 0.0
2016-Feb-12 07:33N 38°02' E 023°32'0 0.1
2016-Feb-12 06:31N 38°02' E 023°32'0 0.1
2016-Feb-12 05:33N 38°02' E 023°32'3 3.0
2016-Feb-12 04:33N 38°01' E 023°28'8 7.4
2016-Feb-12 03:30N 37°54' E 023°22'7 7.7
2016-Feb-12 02:33N 37°51' E 023°30'1 0.8
2016-Feb-12 01:33N 37°51' E 023°32'0 0.0
2016-Feb-12 00:33N 37°51' E 023°32'0 0.0
2016-Feb-11 23:33N 37°51' E 023°32'0 0.0
2016-Feb-11 22:33N 37°51' E 023°31'0 0.0
2016-Feb-11 21:33N 37°51' E 023°32'0 0.0
2016-Feb-11 20:33N 37°51' E 023°32'0 0.1
2016-Feb-11 19:33N 37°51' E 023°31'0 0.1
2016-Feb-11 18:33N 37°51' E 023°31'0 0.0
2016-Feb-11 17:33N 37°51' E 023°31'0 0.1
2016-Feb-11 16:33N 37°51' E 023°31'0 0.0
2016-Feb-11 15:33N 37°51' E 023°31'0 0.1
2016-Feb-11 14:33N 37°51' E 023°31'1 0.8
2016-Feb-11 13:33N 37°50' E 023°31'0 0.1
2016-Feb-11 12:33N 37°50' E 023°31'0 0.1
2016-Feb-11 11:33N 37°50' E 023°31'0 0.0
2016-Feb-11 10:33N 37°50' E 023°31'5 4.6
2016-Feb-11 09:33N 37°54' E 023°34'0 0.0
2016-Feb-11 08:33N 37°54' E 023°34'0 0.0
2016-Feb-11 07:33N 37°54' E 023°34'0 0.0
2016-Feb-11 06:33N 37°54' E 023°34'3 3.0
2016-Feb-11 05:33N 37°57' E 023°34'5 4.8
2016-Feb-11 04:33N 38°02' E 023°36'0 0.1
2016-Feb-11 03:32N 38°02' E 023°36'0 0.0
2016-Feb-11 02:32N 38°02' E 023°36'0 0.0
2016-Feb-11 01:27N 38°02' E 023°36'0 0.0
2016-Feb-11 00:29N 38°02' E 023°36'0 0.0
2016-Feb-10 23:33N 38°02' E 023°36'0 0.0
2016-Feb-10 22:33N 38°02' E 023°36'0 0.0
2016-Feb-10 21:32N 38°02' E 023°36'0 0.0
2016-Feb-10 20:33N 38°02' E 023°36'0 0.0
2016-Feb-10 19:33N 38°02' E 023°36'0 0.0
2016-Feb-10 18:33N 38°02' E 023°36'0 0.0
2016-Feb-10 17:33N 38°02' E 023°36'0 0.0
2016-Feb-10 16:33N 38°02' E 023°36'0 0.0
2016-Feb-10 15:33N 38°02' E 023°36'0 0.0
2016-Feb-10 14:33N 38°02' E 023°36'0 0.0
2016-Feb-10 13:33N 38°02' E 023°36'0 0.0
2016-Feb-10 12:33N 38°02' E 023°36'0 0.0
2016-Feb-10 11:33N 38°02' E 023°36'0 0.0
2016-Feb-10 10:33N 38°02' E 023°36'0 0.0
2016-Feb-10 09:33N 38°02' E 023°36'0 0.0
2016-Feb-10 08:33N 38°02' E 023°36'0 0.0
2016-Feb-10 07:33N 38°02' E 023°36'0 0.5
2016-Feb-10 06:33N 38°02' E 023°35'0 0.0
2016-Feb-10 05:33N 38°02' E 023°35'0 0.0
2016-Feb-10 04:33N 38°02' E 023°35'0 0.0
2016-Feb-10 03:33N 38°02' E 023°35'0 0.1
2016-Feb-10 02:33N 38°02' E 023°35'0 0.1
2016-Feb-10 01:34N 38°02' E 023°35'0 0.0
2016-Feb-10 00:33N 38°02' E 023°35'3 3.5
2016-Feb-09 23:33N 38°02' E 023°31'0 0.0
2016-Feb-09 22:34N 38°02' E 023°31'0 0.0
2016-Feb-09 21:33N 38°02' E 023°31'0 0.0
2016-Feb-09 20:33N 38°02' E 023°31'0 0.0
2016-Feb-09 19:33N 38°02' E 023°31'0 0.0
2016-Feb-09 18:33N 38°02' E 023°31'1 0.8
2016-Feb-09 17:33N 38°02' E 023°31'0 0.1
2016-Feb-09 16:33N 38°02' E 023°31'0 0.0
2016-Feb-09 15:33N 38°02' E 023°31'0 0.0
2016-Feb-09 14:33N 38°02' E 023°31'0 0.1
2016-Feb-09 13:33N 38°02' E 023°31'4 4.3
2016-Feb-09 12:33N 37°57' E 023°33'2 2.3
2016-Feb-09 11:33N 37°57' E 023°36'0 0.0
2016-Feb-09 10:33N 37°57' E 023°36'0 0.0
2016-Feb-09 09:33N 37°57' E 023°36'0 0.0
2016-Feb-09 08:33N 37°57' E 023°36'0 0.0
2016-Feb-09 07:33N 37°57' E 023°36'5 5.0
2016-Feb-09 06:33N 37°53' E 023°33'1 1.4
2016-Feb-09 05:33N 37°52' E 023°32'0 0.0
2016-Feb-09 04:33N 37°52' E 023°32'0 0.0
2016-Feb-09 03:33N 37°52' E 023°32'0 0.1
2016-Feb-09 02:33N 37°52' E 023°32'8 7.9
2016-Feb-09 01:33N 37°54' E 023°23'8 7.9
2016-Feb-09 00:34N 38°01' E 023°28'6 6.4
2016-Feb-08 23:34N 38°02' E 023°36'0 0.0
2016-Feb-08 22:33N 38°02' E 023°36'0 0.0
2016-Feb-08 21:33N 38°02' E 023°36'0 0.0
2016-Feb-08 20:33N 38°02' E 023°36'0 0.0
2016-Feb-08 19:33N 38°02' E 023°36'0 0.1
2016-Feb-08 18:34N 38°02' E 023°36'0 0.3
2016-Feb-08 17:33N 38°02' E 023°35'1 0.8
2016-Feb-08 16:33N 38°01' E 023°34'2 1.7
2016-Feb-08 15:33N 38°01' E 023°32'0 0.0
2016-Feb-08 14:33N 38°01' E 023°32'0 0.0
2016-Feb-08 13:34N 38°01' E 023°32'5 4.6
2016-Feb-08 12:33N 37°57' E 023°35'2 1.6
2016-Feb-08 11:33N 37°56' E 023°33'0 0.0
2016-Feb-08 10:34N 37°56' E 023°33'0 0.1
2016-Feb-08 09:33N 37°56' E 023°33'0 0.0
2016-Feb-08 08:33N 37°56' E 023°33'0 0.0
2016-Feb-08 07:33N 37°56' E 023°33'0 0.0
2016-Feb-08 06:33N 37°56' E 023°34'0 0.0
2016-Feb-08 05:33N 37°56' E 023°33'0 0.0
2016-Feb-08 04:33N 37°56' E 023°33'0 0.0
2016-Feb-08 03:33N 37°56' E 023°34'0 0.0
2016-Feb-08 02:33N 37°56' E 023°33'0 0.0
2016-Feb-08 01:33N 37°56' E 023°34'0 0.0
2016-Feb-08 00:33N 37°56' E 023°34'0 0.0
2016-Feb-07 23:33N 37°56' E 023°34'0 0.0
2016-Feb-07 22:33N 37°56' E 023°34'0 0.0
2016-Feb-07 21:34N 37°56' E 023°33'0 0.0
2016-Feb-07 20:33N 37°56' E 023°33'0 0.0
2016-Feb-07 19:33N 37°56' E 023°34'0 0.1
2016-Feb-07 18:33N 37°56' E 023°33'0 0.1
2016-Feb-07 17:33N 37°56' E 023°33'0 0.0
2016-Feb-07 16:34N 37°56' E 023°34'0 0.0
2016-Feb-07 15:33N 37°56' E 023°33'0 0.0
2016-Feb-07 14:33N 37°56' E 023°33'0 0.0
2016-Feb-07 13:34N 37°56' E 023°33'0 0.0
2016-Feb-07 12:33N 37°56' E 023°33'0 0.0
2016-Feb-07 11:33N 37°56' E 023°33'0 0.0
2016-Feb-07 10:33N 37°56' E 023°33'0 0.0
2016-Feb-07 09:33N 37°56' E 023°33'0 0.1
2016-Feb-07 08:33N 37°56' E 023°33'0 0.0
2016-Feb-07 07:33N 37°56' E 023°33'0 0.0
2016-Feb-07 06:33N 37°56' E 023°33'0 0.0
2016-Feb-07 05:33N 37°56' E 023°34'0 0.0
2016-Feb-07 04:34N 37°56' E 023°33'0 0.0
2016-Feb-07 03:33N 37°56' E 023°33'2 1.8
2016-Feb-07 02:34N 37°54' E 023°34'1 1.3
2016-Feb-07 01:33N 37°53' E 023°34'1 1.4
2016-Feb-07 00:33N 37°54' E 023°34'0 0.0
2016-Feb-06 23:33N 37°54' E 023°34'0 0.3
2016-Feb-06 22:33N 37°54' E 023°34'5 4.7
2016-Feb-06 21:33N 37°51' E 023°29'0 0.0
2016-Feb-06 20:33N 37°51' E 023°29'0 0.1
2016-Feb-06 19:33N 37°51' E 023°29'0 0.1
2016-Feb-06 18:33N 37°51' E 023°28'0 0.0
2016-Feb-06 17:33N 37°51' E 023°28'2 1.9
2016-Feb-06 16:33N 37°51' E 023°31'2 2.4
2016-Feb-06 15:33N 37°53' E 023°33'0 0.1
2016-Feb-06 14:33N 37°53' E 023°34'7 6.5
2016-Feb-06 13:33N 37°59' E 023°33'3 2.6
2016-Feb-06 12:33N 38°02' E 023°32'0 0.0
2016-Feb-06 11:33N 38°02' E 023°32'0 0.0
2016-Feb-06 10:33N 38°02' E 023°32'0 0.0
2016-Feb-06 09:34N 38°02' E 023°32'0 0.0
2016-Feb-06 08:33N 38°02' E 023°32'0 0.0
2016-Feb-06 07:34N 38°02' E 023°32'0 0.0
2016-Feb-06 06:34N 38°02' E 023°32'0 0.0
2016-Feb-06 05:34N 38°02' E 023°32'0 0.0
2016-Feb-06 04:33N 38°02' E 023°32'0 0.0
2016-Feb-06 03:33N 38°02' E 023°32'0 0.0
2016-Feb-06 02:33N 38°02' E 023°32'0 0.0
2016-Feb-06 01:32N 38°02' E 023°32'0 0.0
2016-Feb-06 00:33N 38°02' E 023°32'0 0.2
2016-Feb-05 23:33N 38°02' E 023°32'3 2.6
2016-Feb-05 22:33N 38°02' E 023°36'0 0.0
2016-Feb-05 21:33N 38°02' E 023°36'0 0.0
2016-Feb-05 20:33N 38°02' E 023°36'0 0.0
2016-Feb-05 19:34N 38°02' E 023°36'0 0.0
2016-Feb-05 18:33N 38°02' E 023°36'0 0.0
2016-Feb-05 17:33N 38°02' E 023°36'0 0.0
2016-Feb-05 16:33N 38°02' E 023°36'0 0.4
2016-Feb-05 15:33N 38°02' E 023°35'0 0.0
2016-Feb-05 14:34N 38°02' E 023°35'0 0.0
2016-Feb-05 13:33N 38°02' E 023°35'0 0.4
2016-Feb-05 12:33N 38°01' E 023°35'2 2.0
2016-Feb-05 11:33N 38°02' E 023°32'0 0.0
2016-Feb-05 10:34N 38°02' E 023°32'0 0.0
2016-Feb-05 09:34N 38°02' E 023°32'0 0.0
2016-Feb-05 08:33N 38°02' E 023°32'0 0.0
2016-Feb-05 07:33N 38°02' E 023°32'0 0.0
2016-Feb-05 06:34N 38°02' E 023°32'0 0.0
2016-Feb-05 05:34N 38°02' E 023°32'0 0.1
2016-Feb-05 04:33N 38°02' E 023°32'0 0.0
2016-Feb-05 03:34N 38°02' E 023°32'0 0.1
2016-Feb-05 02:33N 38°02' E 023°32'0 0.0
2016-Feb-05 01:33N 38°02' E 023°32'0 0.0
2016-Feb-05 00:33N 38°02' E 023°32'0 0.1
2016-Feb-04 23:33N 38°02' E 023°32'0 0.0
2016-Feb-04 22:33N 38°02' E 023°32'0 0.1
2016-Feb-04 21:33N 38°02' E 023°32'0 0.0
2016-Feb-04 20:33N 38°02' E 023°32'0 0.0
2016-Feb-04 19:33N 38°02' E 023°32'0 0.0
2016-Feb-04 18:34N 38°02' E 023°32'0 0.0
2016-Feb-04 17:33N 38°02' E 023°32'0 0.0
2016-Feb-04 16:33N 38°02' E 023°32'2 2.4
2016-Feb-04 15:33N 37°60' E 023°33'3 3.2
2016-Feb-04 14:33N 37°57' E 023°36'0 0.0
2016-Feb-04 13:34N 37°57' E 023°36'0 0.0
2016-Feb-04 12:33N 37°57' E 023°36'0 0.0
2016-Feb-04 11:33N 37°57' E 023°36'0 0.0
2016-Feb-04 10:33N 37°57' E 023°36'0 0.0
2016-Feb-04 09:33N 37°57' E 023°36'1 0.8
2016-Feb-04 08:33N 37°57' E 023°35'5 4.8
2016-Feb-04 07:33N 38°02' E 023°36'0 0.0
2016-Feb-04 06:34N 38°02' E 023°36'0 0.0
2016-Feb-04 05:34N 38°02' E 023°36'0 0.0
2016-Feb-04 04:33N 38°02' E 023°36'0 0.0
2016-Feb-04 03:34N 38°02' E 023°36'0 0.0
2016-Feb-04 02:34N 38°02' E 023°36'0 0.5
2016-Feb-04 01:33N 38°02' E 023°35'0 0.0
2016-Feb-04 00:34N 38°02' E 023°35'0 0.0
2016-Feb-03 23:34N 38°02' E 023°35'0 0.0
2016-Feb-03 22:33N 38°02' E 023°35'0 0.1
2016-Feb-03 21:34N 38°02' E 023°35'0 0.1
2016-Feb-03 20:33N 38°02' E 023°35'0 0.0
2016-Feb-03 19:33N 38°02' E 023°35'0 0.0
2016-Feb-03 18:33N 38°02' E 023°35'0 0.0
2016-Feb-03 17:33N 38°02' E 023°35'0 0.0
2016-Feb-03 16:34N 38°02' E 023°35'5 4.7
2016-Feb-03 15:33N 37°57' E 023°34'1 1.2
2016-Feb-03 14:33N 37°57' E 023°35'0 0.0
2016-Feb-03 13:33N 37°57' E 023°35'0 0.1
2016-Feb-03 12:33N 37°57' E 023°35'0 0.1
2016-Feb-03 11:33N 37°57' E 023°35'0 0.0
2016-Feb-03 10:33N 37°57' E 023°35'0 0.2
2016-Feb-03 09:33N 37°57' E 023°35'0 0.2
2016-Feb-03 08:33N 37°57' E 023°35'2 1.9
2016-Feb-03 07:33N 37°56' E 023°34'0 0.0
2016-Feb-03 06:33N 37°56' E 023°34'0 0.0
2016-Feb-03 05:33N 37°56' E 023°34'0 0.0
2016-Feb-03 04:33N 37°56' E 023°34'0 0.1
2016-Feb-03 03:33N 37°56' E 023°34'0 0.0
2016-Feb-03 02:33N 37°56' E 023°34'0 0.0
2016-Feb-03 01:33N 37°56' E 023°34'0 0.0
2016-Feb-03 00:33N 37°56' E 023°34'0 0.0
2016-Feb-02 23:33N 37°56' E 023°34'0 0.0
2016-Feb-02 22:33N 37°56' E 023°34'0 0.0
2016-Feb-02 21:33N 37°56' E 023°34'0 0.0
2016-Feb-02 20:33N 37°56' E 023°34'0 0.0
2016-Feb-02 19:33N 37°56' E 023°34'0 0.1
2016-Feb-02 18:33N 37°56' E 023°34'0 0.0
2016-Feb-02 17:33N 37°56' E 023°34'0 0.0
2016-Feb-02 16:33N 37°56' E 023°34'  
Track history (hours):
 
Tides and Currents Weather Stations Pressure Air Temp Water Temp Dewpoint Dewpoint Depression Visibility Wind Speed Wind Dir Waves Ship Positions

Menalon

Last reported at 2016-Feb-12 15:33 UTC. Time now 2016-Feb-12 16:17 UTC.
Position N 38°02' E 023°31'.

; draft 3.5 m.

Type: Ship (hazmat cat C). MMSI: 239741000.

Date/timePositionNaut miles runAvg speedWind from/ knotsBaromVisibWave heightAir tempDewpointWater temp
2016-Feb-12 15:33N 38°02' E 023°31'1 0.6
2016-Feb-12 14:33N 38°02' E 023°32'0 0.0
2016-Feb-12 13:33N 38°02' E 023°32'0 0.0
2016-Feb-12 12:33N 38°02' E 023°32'0 0.0
2016-Feb-12 11:33N 38°02' E 023°32'0 0.0
2016-Feb-12 10:33N 38°02' E 023°32'0 0.0
2016-Feb-12 09:33N 38°02' E 023°32'0 0.0
2016-Feb-12 08:33N 38°02' E 023°32'0 0.0
2016-Feb-12 07:33N 38°02' E 023°32'0 0.1
2016-Feb-12 06:31N 38°02' E 023°32'0 0.1
2016-Feb-12 05:33N 38°02' E 023°32'3 3.0
2016-Feb-12 04:33N 38°01' E 023°28'8 7.4
2016-Feb-12 03:30N 37°54' E 023°22'7 7.7
2016-Feb-12 02:33N 37°51' E 023°30'1 0.8
2016-Feb-12 01:33N 37°51' E 023°32'0 0.0
2016-Feb-12 00:33N 37°51' E 023°32'0 0.0
2016-Feb-11 23:33N 37°51' E 023°32'0 0.0
2016-Feb-11 22:33N 37°51' E 023°31'0 0.0
2016-Feb-11 21:33N 37°51' E 023°32'0 0.0
2016-Feb-11 20:33N 37°51' E 023°32'0 0.1
2016-Feb-11 19:33N 37°51' E 023°31'0 0.1
2016-Feb-11 18:33N 37°51' E 023°31'0 0.0
2016-Feb-11 17:33N 37°51' E 023°31'0 0.1
2016-Feb-11 16:33N 37°51' E 023°31'0 0.0
2016-Feb-11 15:33N 37°51' E 023°31'0 0.1
2016-Feb-11 14:33N 37°51' E 023°31'1 0.8
2016-Feb-11 13:33N 37°50' E 023°31'0 0.1
2016-Feb-11 12:33N 37°50' E 023°31'0 0.1
2016-Feb-11 11:33N 37°50' E 023°31'0 0.0
2016-Feb-11 10:33N 37°50' E 023°31'5 4.6
2016-Feb-11 09:33N 37°54' E 023°34'0 0.0
2016-Feb-11 08:33N 37°54' E 023°34'0 0.0
2016-Feb-11 07:33N 37°54' E 023°34'0 0.0
2016-Feb-11 06:33N 37°54' E 023°34'3 3.0
2016-Feb-11 05:33N 37°57' E 023°34'5 4.8
2016-Feb-11 04:33N 38°02' E 023°36'0 0.1
2016-Feb-11 03:32N 38°02' E 023°36'0 0.0
2016-Feb-11 02:32N 38°02' E 023°36'0 0.0
2016-Feb-11 01:27N 38°02' E 023°36'0 0.0
2016-Feb-11 00:29N 38°02' E 023°36'0 0.0
2016-Feb-10 23:33N 38°02' E 023°36'0 0.0
2016-Feb-10 22:33N 38°02' E 023°36'0 0.0
2016-Feb-10 21:32N 38°02' E 023°36'0 0.0
2016-Feb-10 20:33N 38°02' E 023°36'0 0.0
2016-Feb-10 19:33N 38°02' E 023°36'0 0.0
2016-Feb-10 18:33N 38°02' E 023°36'0 0.0
2016-Feb-10 17:33N 38°02' E 023°36'0 0.0
2016-Feb-10 16:33N 38°02' E 023°36'0 0.0
2016-Feb-10 15:33N 38°02' E 023°36'0 0.0
2016-Feb-10 14:33N 38°02' E 023°36'0 0.0
2016-Feb-10 13:33N 38°02' E 023°36'0 0.0
2016-Feb-10 12:33N 38°02' E 023°36'0 0.0
2016-Feb-10 11:33N 38°02' E 023°36'0 0.0
2016-Feb-10 10:33N 38°02' E 023°36'0 0.0
2016-Feb-10 09:33N 38°02' E 023°36'0 0.0
2016-Feb-10 08:33N 38°02' E 023°36'0 0.0
2016-Feb-10 07:33N 38°02' E 023°36'0 0.5
2016-Feb-10 06:33N 38°02' E 023°35'0 0.0
2016-Feb-10 05:33N 38°02' E 023°35'0 0.0
2016-Feb-10 04:33N 38°02' E 023°35'0 0.0
2016-Feb-10 03:33N 38°02' E 023°35'0 0.1
2016-Feb-10 02:33N 38°02' E 023°35'0 0.1
2016-Feb-10 01:34N 38°02' E 023°35'0 0.0
2016-Feb-10 00:33N 38°02' E 023°35'3 3.5
2016-Feb-09 23:33N 38°02' E 023°31'0 0.0
2016-Feb-09 22:34N 38°02' E 023°31'0 0.0
2016-Feb-09 21:33N 38°02' E 023°31'0 0.0
2016-Feb-09 20:33N 38°02' E 023°31'0 0.0
2016-Feb-09 19:33N 38°02' E 023°31'0 0.0
2016-Feb-09 18:33N 38°02' E 023°31'1 0.8
2016-Feb-09 17:33N 38°02' E 023°31'0 0.1
2016-Feb-09 16:33N 38°02' E 023°31'0 0.0
2016-Feb-09 15:33N 38°02' E 023°31'0 0.0
2016-Feb-09 14:33N 38°02' E 023°31'0 0.1
2016-Feb-09 13:33N 38°02' E 023°31'4 4.3
2016-Feb-09 12:33N 37°57' E 023°33'2 2.3
2016-Feb-09 11:33N 37°57' E 023°36'0 0.0
2016-Feb-09 10:33N 37°57' E 023°36'0 0.0
2016-Feb-09 09:33N 37°57' E 023°36'0 0.0
2016-Feb-09 08:33N 37°57' E 023°36'0 0.0
2016-Feb-09 07:33N 37°57' E 023°36'5 5.0
2016-Feb-09 06:33N 37°53' E 023°33'1 1.4
2016-Feb-09 05:33N 37°52' E 023°32'0 0.0
2016-Feb-09 04:33N 37°52' E 023°32'0 0.0
2016-Feb-09 03:33N 37°52' E 023°32'0 0.1
2016-Feb-09 02:33N 37°52' E 023°32'8 7.9
2016-Feb-09 01:33N 37°54' E 023°23'8 7.9
2016-Feb-09 00:34N 38°01' E 023°28'6 6.4
2016-Feb-08 23:34N 38°02' E 023°36'0 0.0
2016-Feb-08 22:33N 38°02' E 023°36'0 0.0
2016-Feb-08 21:33N 38°02' E 023°36'0 0.0
2016-Feb-08 20:33N 38°02' E 023°36'0 0.0
2016-Feb-08 19:33N 38°02' E 023°36'0 0.1
2016-Feb-08 18:34N 38°02' E 023°36'0 0.3
2016-Feb-08 17:33N 38°02' E 023°35'1 0.8
2016-Feb-08 16:33N 38°01' E 023°34'2 1.7
2016-Feb-08 15:33N 38°01' E 023°32'0 0.0
2016-Feb-08 14:33N 38°01' E 023°32'0 0.0
2016-Feb-08 13:34N 38°01' E 023°32'5 4.6
2016-Feb-08 12:33N 37°57' E 023°35'2 1.6
2016-Feb-08 11:33N 37°56' E 023°33'0 0.0
2016-Feb-08 10:34N 37°56' E 023°33'0 0.1
2016-Feb-08 09:33N 37°56' E 023°33'0 0.0
2016-Feb-08 08:33N 37°56' E 023°33'0 0.0
2016-Feb-08 07:33N 37°56' E 023°33'0 0.0
2016-Feb-08 06:33N 37°56' E 023°34'0 0.0
2016-Feb-08 05:33N 37°56' E 023°33'0 0.0
2016-Feb-08 04:33N 37°56' E 023°33'0 0.0
2016-Feb-08 03:33N 37°56' E 023°34'0 0.0
2016-Feb-08 02:33N 37°56' E 023°33'0 0.0
2016-Feb-08 01:33N 37°56' E 023°34'0 0.0
2016-Feb-08 00:33N 37°56' E 023°34'0 0.0
2016-Feb-07 23:33N 37°56' E 023°34'0 0.0
2016-Feb-07 22:33N 37°56' E 023°34'0 0.0
2016-Feb-07 21:34N 37°56' E 023°33'0 0.0
2016-Feb-07 20:33N 37°56' E 023°33'0 0.0
2016-Feb-07 19:33N 37°56' E 023°34'0 0.1
2016-Feb-07 18:33N 37°56' E 023°33'0 0.1
2016-Feb-07 17:33N 37°56' E 023°33'0 0.0
2016-Feb-07 16:34N 37°56' E 023°34'0 0.0
2016-Feb-07 15:33N 37°56' E 023°33'0 0.0
2016-Feb-07 14:33N 37°56' E 023°33'0 0.0
2016-Feb-07 13:34N 37°56' E 023°33'0 0.0
2016-Feb-07 12:33N 37°56' E 023°33'0 0.0
2016-Feb-07 11:33N 37°56' E 023°33'0 0.0
2016-Feb-07 10:33N 37°56' E 023°33'0 0.0
2016-Feb-07 09:33N 37°56' E 023°33'0 0.1
2016-Feb-07 08:33N 37°56' E 023°33'0 0.0
2016-Feb-07 07:33N 37°56' E 023°33'0 0.0
2016-Feb-07 06:33N 37°56' E 023°33'0 0.0
2016-Feb-07 05:33N 37°56' E 023°34'0 0.0
2016-Feb-07 04:34N 37°56' E 023°33'0 0.0
2016-Feb-07 03:33N 37°56' E 023°33'2 1.8
2016-Feb-07 02:34N 37°54' E 023°34'1 1.3
2016-Feb-07 01:33N 37°53' E 023°34'1 1.4
2016-Feb-07 00:33N 37°54' E 023°34'0 0.0
2016-Feb-06 23:33N 37°54' E 023°34'0 0.3
2016-Feb-06 22:33N 37°54' E 023°34'5 4.7
2016-Feb-06 21:33N 37°51' E 023°29'0 0.0
2016-Feb-06 20:33N 37°51' E 023°29'0 0.1
2016-Feb-06 19:33N 37°51' E 023°29'0 0.1
2016-Feb-06 18:33N 37°51' E 023°28'0 0.0
2016-Feb-06 17:33N 37°51' E 023°28'2 1.9
2016-Feb-06 16:33N 37°51' E 023°31'2 2.4
2016-Feb-06 15:33N 37°53' E 023°33'0 0.1
2016-Feb-06 14:33N 37°53' E 023°34'7 6.5
2016-Feb-06 13:33N 37°59' E 023°33'3 2.6
2016-Feb-06 12:33N 38°02' E 023°32'0 0.0
2016-Feb-06 11:33N 38°02' E 023°32'0 0.0
2016-Feb-06 10:33N 38°02' E 023°32'0 0.0
2016-Feb-06 09:34N 38°02' E 023°32'0 0.0
2016-Feb-06 08:33N 38°02' E 023°32'0 0.0
2016-Feb-06 07:34N 38°02' E 023°32'0 0.0
2016-Feb-06 06:34N 38°02' E 023°32'0 0.0
2016-Feb-06 05:34N 38°02' E 023°32'0 0.0
2016-Feb-06 04:33N 38°02' E 023°32'0 0.0
2016-Feb-06 03:33N 38°02' E 023°32'0 0.0
2016-Feb-06 02:33N 38°02' E 023°32'0 0.0
2016-Feb-06 01:32N 38°02' E 023°32'0 0.0
2016-Feb-06 00:33N 38°02' E 023°32'0 0.2
2016-Feb-05 23:33N 38°02' E 023°32'3 2.6
2016-Feb-05 22:33N 38°02' E 023°36'0 0.0
2016-Feb-05 21:33N 38°02' E 023°36'0 0.0
2016-Feb-05 20:33N 38°02' E 023°36'0 0.0
2016-Feb-05 19:34N 38°02' E 023°36'0 0.0
2016-Feb-05 18:33N 38°02' E 023°36'0 0.0
2016-Feb-05 17:33N 38°02' E 023°36'0 0.0
2016-Feb-05 16:33N 38°02' E 023°36'0 0.4
2016-Feb-05 15:33N 38°02' E 023°35'0 0.0
2016-Feb-05 14:34N 38°02' E 023°35'0 0.0
2016-Feb-05 13:33N 38°02' E 023°35'0 0.4
2016-Feb-05 12:33N 38°01' E 023°35'2 2.0
2016-Feb-05 11:33N 38°02' E 023°32'0 0.0
2016-Feb-05 10:34N 38°02' E 023°32'0 0.0
2016-Feb-05 09:34N 38°02' E 023°32'0 0.0
2016-Feb-05 08:33N 38°02' E 023°32'0 0.0
2016-Feb-05 07:33N 38°02' E 023°32'0 0.0
2016-Feb-05 06:34N 38°02' E 023°32'0 0.0
2016-Feb-05 05:34N 38°02' E 023°32'0 0.1
2016-Feb-05 04:33N 38°02' E 023°32'0 0.0
2016-Feb-05 03:34N 38°02' E 023°32'0 0.1
2016-Feb-05 02:33N 38°02' E 023°32'0 0.0
2016-Feb-05 01:33N 38°02' E 023°32'0 0.0
2016-Feb-05 00:33N 38°02' E 023°32'0 0.1
2016-Feb-04 23:33N 38°02' E 023°32'0 0.0
2016-Feb-04 22:33N 38°02' E 023°32'0 0.1
2016-Feb-04 21:33N 38°02' E 023°32'0 0.0
2016-Feb-04 20:33N 38°02' E 023°32'0 0.0
2016-Feb-04 19:33N 38°02' E 023°32'0 0.0
2016-Feb-04 18:34N 38°02' E 023°32'0 0.0
2016-Feb-04 17:33N 38°02' E 023°32'0 0.0
2016-Feb-04 16:33N 38°02' E 023°32'2 2.4
2016-Feb-04 15:33N 37°60' E 023°33'3 3.2
2016-Feb-04 14:33N 37°57' E 023°36'0 0.0
2016-Feb-04 13:34N 37°57' E 023°36'0 0.0
2016-Feb-04 12:33N 37°57' E 023°36'0 0.0
2016-Feb-04 11:33N 37°57' E 023°36'0 0.0
2016-Feb-04 10:33N 37°57' E 023°36'0 0.0
2016-Feb-04 09:33N 37°57' E 023°36'1 0.8
2016-Feb-04 08:33N 37°57' E 023°35'5 4.8
2016-Feb-04 07:33N 38°02' E 023°36'0 0.0
2016-Feb-04 06:34N 38°02' E 023°36'0 0.0
2016-Feb-04 05:34N 38°02' E 023°36'0 0.0
2016-Feb-04 04:33N 38°02' E 023°36'0 0.0
2016-Feb-04 03:34N 38°02' E 023°36'0 0.0
2016-Feb-04 02:34N 38°02' E 023°36'0 0.5
2016-Feb-04 01:33N 38°02' E 023°35'0 0.0
2016-Feb-04 00:34N 38°02' E 023°35'0 0.0
2016-Feb-03 23:34N 38°02' E 023°35'0 0.0
2016-Feb-03 22:33N 38°02' E 023°35'0 0.1
2016-Feb-03 21:34N 38°02' E 023°35'0 0.1
2016-Feb-03 20:33N 38°02' E 023°35'0 0.0
2016-Feb-03 19:33N 38°02' E 023°35'0 0.0
2016-Feb-03 18:33N 38°02' E 023°35'0 0.0
2016-Feb-03 17:33N 38°02' E 023°35'0 0.0
2016-Feb-03 16:34N 38°02' E 023°35'5 4.7
2016-Feb-03 15:33N 37°57' E 023°34'1 1.2
2016-Feb-03 14:33N 37°57' E 023°35'0 0.0
2016-Feb-03 13:33N 37°57' E 023°35'0 0.1
2016-Feb-03 12:33N 37°57' E 023°35'0 0.1
2016-Feb-03 11:33N 37°57' E 023°35'0 0.0
2016-Feb-03 10:33N 37°57' E 023°35'0 0.2
2016-Feb-03 09:33N 37°57' E 023°35'0 0.2
2016-Feb-03 08:33N 37°57' E 023°35'2 1.9
2016-Feb-03 07:33N 37°56' E 023°34'0 0.0
2016-Feb-03 06:33N 37°56' E 023°34'0 0.0
2016-Feb-03 05:33N 37°56' E 023°34'0 0.0
2016-Feb-03 04:33N 37°56' E 023°34'0 0.1
2016-Feb-03 03:33N 37°56' E 023°34'0 0.0
2016-Feb-03 02:33N 37°56' E 023°34'0 0.0
2016-Feb-03 01:33N 37°56' E 023°34'0 0.0
2016-Feb-03 00:33N 37°56' E 023°34'0 0.0
2016-Feb-02 23:33N 37°56' E 023°34'0 0.0
2016-Feb-02 22:33N 37°56' E 023°34'0 0.0
2016-Feb-02 21:33N 37°56' E 023°34'0 0.0
2016-Feb-02 20:33N 37°56' E 023°34'0 0.0
2016-Feb-02 19:33N 37°56' E 023°34'0 0.1
2016-Feb-02 18:33N 37°56' E 023°34'0 0.0
2016-Feb-02 17:33N 37°56' E 023°34'0 0.0
2016-Feb-02 16:33N 37°56' E 023°34'  

Dump ship's entire track history